Time;durP1;ratioP1;P1;durP2;ratioP2;P2;SDS_P1;SDS_P2;PMS_P1;PMS_P2;Temp;Humidity;BMP_temperature;BMP_pressure;BME280_temperature;BME280_humidity;BME280_pressure;Samples;Min_cycle;Max_cycle;Signal;HPM_P1;HPM_P2
2022/01/20 00:00:33;;;;;;;18.95;2.40;;;5.60;99.90;;;;;;4959984;28;20422;-84
2022/01/20 00:03:02;;;;;;;15.25;2.40;;;5.60;99.90;;;;;;4961677;28;20050;-81
2022/01/20 00:05:46;;;;;;;16.00;1.95;;;5.60;99.90;;;;;;4979138;28;20054;-81
2022/01/20 00:08:30;;;;;;;16.40;3.28;;;5.60;99.90;;;;;;4978967;28;20389;-81
2022/01/20 00:27:49;;;;;;;14.88;2.35;;;5.40;99.90;;;;;;4959774;28;20051;-79
2022/01/20 00:30:41;;;;;;;19.58;2.03;;;5.30;99.90;;;;;;4968271;28;20049;-79
2022/01/20 00:38:26;;;;;;;16.85;2.10;;;5.30;99.90;;;;;;4960721;28;20046;-78
2022/01/20 00:40:53;;;;;;;12.45;1.92;;;5.40;99.90;;;;;;4962850;28;20509;-80
2022/01/20 00:43:19;;;;;;;16.13;2.55;;;5.40;99.90;;;;;;4947389;28;20082;-80
2022/01/20 00:45:47;;;;;;;11.43;2.05;;;5.60;99.90;;;;;;4962384;28;20078;-79
2022/01/20 00:48:12;;;;;;;17.38;2.63;;;5.60;99.90;;;;;;4963098;28;20479;-78
2022/01/20 00:50:38;;;;;;;18.08;2.65;;;5.60;99.90;;;;;;4962521;28;20093;-78
2022/01/20 00:53:04;;;;;;;17.65;2.63;;;5.50;99.90;;;;;;4978870;28;20661;-78
2022/01/20 00:55:30;;;;;;;19.27;2.50;;;5.50;99.90;;;;;;4962170;28;20046;-82
2022/01/20 00:57:56;;;;;;;16.48;2.95;;;5.50;99.90;;;;;;4962895;28;20046;-79
2022/01/20 01:00:22;;;;;;;14.32;2.38;;;5.50;99.90;;;;;;4947149;28;20046;-79
2022/01/20 01:02:47;;;;;;;15.20;2.03;;;5.60;99.90;;;;;;4962560;28;20471;-79
2022/01/20 01:05:13;;;;;;;17.98;2.55;;;5.70;99.90;;;;;;4962875;28;20133;-80
2022/01/20 01:07:50;;;;;;;19.50;2.60;;;5.60;99.90;;;;;;4962686;28;20046;-78
2022/01/20 01:10:26;;;;;;;14.50;2.28;;;5.50;99.90;;;;;;4981810;28;20066;-78
2022/01/20 01:13:16;;;;;;;13.88;2.35;;;5.30;99.90;;;;;;4989347;28;20471;-79
2022/01/20 01:15:43;;;;;;;13.23;2.33;;;5.20;99.90;;;;;;4962210;28;20430;-78
2022/01/20 01:23:36;;;;;;;17.83;2.67;;;5.00;99.90;;;;;;4943181;28;20065;-79
2022/01/20 01:26:04;;;;;;;27.02;2.90;;;5.00;99.90;;;;;;4975194;28;20057;-79
2022/01/20 01:28:32;;;;;;;14.10;3.20;;;5.10;99.90;;;;;;4975024;28;20376;-78
2022/01/20 01:31:22;;;;;;;15.95;2.60;;;5.20;99.90;;;;;;4953354;28;20055;-79
2022/01/20 01:34:17;;;;;;;18.75;2.75;;;5.30;99.90;;;;;;4958093;28;20050;-80
2022/01/20 01:37:02;;;;;;;15.50;2.92;;;5.40;99.90;;;;;;4958150;28;20067;-82
2022/01/20 01:39:27;;;;;;;20.20;2.65;;;5.40;99.90;;;;;;4942591;28;20042;-81
2022/01/20 01:41:56;;;;;;;28.83;3.05;;;5.20;99.90;;;;;;4974501;28;20062;-81
2022/01/20 01:44:25;;;;;;;14.38;2.35;;;5.10;99.90;;;;;;4958051;28;20054;-80
2022/01/20 01:46:52;;;;;;;23.48;2.58;;;5.00;99.90;;;;;;4943174;28;20058;-84
2022/01/20 01:49:19;;;;;;;23.40;4.18;;;5.00;99.90;;;;;;4958639;28;20399;-81
2022/01/20 01:51:45;;;;;;;18.00;3.17;;;4.80;99.90;;;;;;4942341;28;20046;-79
2022/01/20 01:54:12;;;;;;;21.67;3.58;;;5.00;99.90;;;;;;4958578;28;20046;-81
2022/01/20 01:56:40;;;;;;;20.90;2.97;;;5.00;99.90;;;;;;4926512;28;20504;-82
2022/01/20 01:59:06;;;;;;;16.27;3.05;;;5.10;99.90;;;;;;4942495;28;20078;-81
2022/01/20 02:01:35;;;;;;;20.65;2.67;;;5.10;99.90;;;;;;4958000;28;20555;-80
2022/01/20 02:04:12;;;;;;;21.05;3.20;;;4.90;99.90;;;;;;4957279;28;20499;-82
2022/01/20 02:09:42;;;;;;;20.65;3.20;;;4.90;99.90;;;;;;4957353;28;20408;-80
2022/01/20 02:20:15;;;;;;;30.50;3.72;;;5.00;99.90;;;;;;4923160;29;20142;-79
2022/01/20 02:22:41;;;;;;;28.70;4.07;;;5.10;99.90;;;;;;4923373;29;20142;-81
2022/01/20 02:25:26;;;;;;;23.20;4.00;;;5.10;99.90;;;;;;4922789;28;20086;-80
2022/01/20 02:27:52;;;;;;;26.95;4.53;;;5.20;99.90;;;;;;4957763;28;20795;-80
2022/01/20 02:30:20;;;;;;;30.15;4.85;;;5.20;99.90;;;;;;4957598;28;20046;-82
2022/01/20 02:32:54;;;;;;;25.00;4.38;;;5.20;99.90;;;;;;4925994;28;20121;-81
2022/01/20 02:35:20;;;;;;;26.88;4.25;;;5.30;99.90;;;;;;4957818;28;20046;-78
2022/01/20 02:37:48;;;;;;;38.40;5.63;;;5.20;99.90;;;;;;4957707;28;20054;-79
2022/01/20 02:45:43;;;;;;;26.38;5.15;;;5.20;99.90;;;;;;4957385;28;20053;-81
2022/01/20 02:48:08;;;;;;;29.95;5.00;;;5.10;99.90;;;;;;4926090;28;20476;-78
2022/01/20 02:50:34;;;;;;;25.33;5.78;;;5.00;99.90;;;;;;4956966;28;20067;-77
2022/01/20 02:53:00;;;;;;;20.30;3.90;;;4.90;99.90;;;;;;4957535;28;20043;-79
2022/01/20 02:55:25;;;;;;;32.25;4.47;;;4.90;99.90;;;;;;4910114;28;20516;-82
2022/01/20 02:57:51;;;;;;;20.30;3.67;;;4.80;99.90;;;;;;4957131;28;20043;-80
2022/01/20 03:00:18;;;;;;;21.08;4.13;;;4.70;99.90;;;;;;4941103;28;20404;-80
2022/01/20 03:02:44;;;;;;;24.10;3.90;;;4.70;99.90;;;;;;4957130;28;20551;-81
2022/01/20 03:05:13;;;;;;;28.90;4.53;;;4.70;99.90;;;;;;4940812;28;20126;-80
2022/01/20 03:07:38;;;;;;;25.38;4.43;;;4.80;99.90;;;;;;4941100;28;20471;-80
2022/01/20 03:10:08;;;;;;;21.98;3.85;;;4.80;99.90;;;;;;4957071;28;20082;-80
2022/01/20 03:12:33;;;;;;;22.98;3.60;;;4.70;99.90;;;;;;4957207;28;20136;-81
2022/01/20 03:14:59;;;;;;;20.73;3.70;;;4.70;99.90;;;;;;4958148;28;20137;-82
2022/01/20 03:17:25;;;;;;;25.25;4.68;;;4.80;99.90;;;;;;4976537;28;20455;-82
2022/01/20 03:19:51;;;;;;;24.27;4.13;;;4.70;99.90;;;;;;4960000;28;20086;-79
2022/01/20 03:22:17;;;;;;;19.13;3.63;;;4.70;99.90;;;;;;4976134;28;20060;-78
2022/01/20 03:24:43;;;;;;;18.98;2.88;;;4.70;99.90;;;;;;4976378;28;20403;-78
2022/01/20 03:27:08;;;;;;;17.13;3.88;;;4.70;99.90;;;;;;4976358;28;20046;-77
2022/01/20 03:29:34;;;;;;;23.63;3.22;;;4.60;99.90;;;;;;4960597;28;20515;-78
2022/01/20 03:32:00;;;;;;;20.10;2.85;;;4.60;99.90;;;;;;4975710;28;20050;-80
2022/01/20 03:34:26;;;;;;;16.35;3.03;;;4.60;99.90;;;;;;4975759;28;20415;-80
2022/01/20 03:36:52;;;;;;;17.15;3.13;;;4.50;99.90;;;;;;4966508;28;20053;-78
2022/01/20 03:39:19;;;;;;;16.35;3.05;;;4.60;99.90;;;;;;4944552;28;20098;-77
2022/01/20 03:41:44;;;;;;;21.88;3.08;;;4.50;99.90;;;;;;4961428;28;20042;-78
2022/01/20 03:44:10;;;;;;;18.05;3.08;;;4.60;99.90;;;;;;4961094;28;20387;-79
2022/01/20 03:46:36;;;;;;;24.15;3.00;;;4.50;99.90;;;;;;4960456;28;20050;-78
2022/01/20 03:51:48;;;;;;;17.90;2.97;;;4.50;99.90;;;;;;4969181;28;20046;-80
2022/01/20 03:54:14;;;;;;;18.85;3.05;;;4.40;99.90;;;;;;4979698;28;20053;-79
2022/01/20 03:56:40;;;;;;;18.00;3.42;;;4.40;99.90;;;;;;4975042;28;20050;-80
2022/01/20 03:59:05;;;;;;;19.65;3.08;;;4.30;99.90;;;;;;4959610;28;20076;-80
2022/01/20 04:01:31;;;;;;;24.10;3.83;;;4.30;99.90;;;;;;4944295;28;20059;-80
2022/01/20 04:03:57;;;;;;;17.30;3.28;;;4.20;99.90;;;;;;4976425;28;20058;-80
2022/01/20 04:06:24;;;;;;;21.45;3.80;;;4.20;99.90;;;;;;4976818;28;20057;-79
2022/01/20 04:08:50;;;;;;;21.67;3.88;;;4.20;99.90;;;;;;4928584;28;20530;-87
2022/01/20 04:11:24;;;;;;;16.45;3.28;;;4.20;99.90;;;;;;4948818;28;20070;-78
2022/01/20 04:13:51;;;;;;;16.52;2.50;;;4.00;99.90;;;;;;4960334;28;20090;-92
2022/01/20 04:16:34;;;;;;;18.63;3.28;;;3.60;99.90;;;;;;4944082;28;20054;-82
2022/01/20 04:19:03;;;;;;;13.38;2.25;;;3.40;99.90;;;;;;4960221;28;20113;-79
2022/01/20 04:21:30;;;;;;;10.48;1.92;;;3.40;99.90;;;;;;4960507;28;20047;-79
2022/01/20 04:23:58;;;;;;;15.07;3.15;;;3.30;99.90;;;;;;4944049;28;20043;-78
2022/01/20 04:26:25;;;;;;;20.40;3.47;;;3.40;99.90;;;;;;4944792;28;20046;-78
2022/01/20 04:28:56;;;;;;;19.30;2.80;;;3.40;99.90;;;;;;4944282;28;20051;-77
2022/01/20 04:31:26;;;;;;;16.02;2.97;;;3.50;99.90;;;;;;4943630;28;20129;-80
2022/01/20 04:33:52;;;;;;;19.52;3.60;;;3.60;99.90;;;;;;4959620;28;20045;-83
2022/01/20 04:36:18;;;;;;;17.70;3.30;;;3.60;99.90;;;;;;4959465;28;20039;-81
2022/01/20 04:38:44;;;;;;;22.40;4.45;;;3.60;99.90;;;;;;4943688;28;20047;-81
2022/01/20 04:41:10;;;;;;;20.80;3.50;;;3.60;99.90;;;;;;4928148;28;20043;-79
2022/01/20 04:43:36;;;;;;;22.55;3.40;;;3.70;99.90;;;;;;4944209;28;20055;-80
2022/01/20 04:46:15;;;;;;;24.48;3.20;;;3.80;99.90;;;;;;4959266;28;20079;-79
2022/01/20 04:59:28;;;;;;;18.30;2.67;;;4.00;99.90;;;;;;4936966;29;20102;-80
2022/01/20 05:01:54;;;;;;;16.80;2.75;;;4.00;99.90;;;;;;4941564;28;20586;-79
2022/01/20 05:04:22;;;;;;;22.15;2.65;;;4.00;99.90;;;;;;4930852;28;20055;-79
2022/01/20 05:06:49;;;;;;;28.25;4.13;;;4.00;99.90;;;;;;4943460;28;20137;-80
2022/01/20 05:09:19;;;;;;;19.17;2.70;;;4.10;99.90;;;;;;4958353;28;20046;-78
2022/01/20 05:12:00;;;;;;;19.45;2.28;;;4.10;99.90;;;;;;4959612;28;20401;-78
2022/01/20 05:14:27;;;;;;;7.57;1.88;;;3.90;99.90;;;;;;4959705;28;20452;-79
2022/01/20 05:16:55;;;;;;;10.15;1.85;;;3.70;99.90;;;;;;4992229;28;20065;-76
2022/01/20 05:19:22;;;;;;;12.13;1.80;;;3.60;99.90;;;;;;4997947;28;20081;-77
2022/01/20 05:21:48;;;;;;;11.55;2.30;;;3.50;99.90;;;;;;4998200;28;20042;-78
2022/01/20 05:24:13;;;;;;;12.60;2.45;;;3.50;99.90;;;;;;4997438;28;20478;-78
2022/01/20 05:26:39;;;;;;;21.83;4.20;;;3.50;99.90;;;;;;4981924;28;20434;-79
2022/01/20 05:29:05;;;;;;;19.77;3.47;;;3.50;99.90;;;;;;4981889;28;20073;-77
2022/01/20 05:31:30;;;;;;;24.80;4.80;;;3.60;99.90;;;;;;4974981;28;20053;-77
2022/01/20 05:33:56;;;;;;;30.02;4.40;;;3.60;99.90;;;;;;4978437;28;20049;-78
2022/01/20 05:36:22;;;;;;;17.70;3.75;;;3.70;99.90;;;;;;4962186;28;20094;-78
2022/01/20 05:38:48;;;;;;;18.20;2.58;;;3.80;99.90;;;;;;4962224;28;20471;-77
2022/01/20 05:41:14;;;;;;;18.35;2.97;;;3.60;99.90;;;;;;4961773;28;20046;-76
2022/01/20 05:43:39;;;;;;;12.77;1.92;;;3.40;99.90;;;;;;4978345;28;20135;-78
2022/01/20 05:46:05;;;;;;;16.48;2.90;;;3.40;99.90;;;;;;4978133;28;20042;-79
2022/01/20 05:48:33;;;;;;;20.85;3.35;;;3.40;99.90;;;;;;4945831;28;20089;-77
2022/01/20 05:51:00;;;;;;;23.02;3.72;;;3.50;99.90;;;;;;4977068;28;20050;-80
2022/01/20 05:53:26;;;;;;;16.42;2.70;;;3.60;99.90;;;;;;4961126;28;20050;-78
2022/01/20 05:55:52;;;;;;;17.13;2.92;;;3.70;99.90;;;;;;4961376;28;20121;-78
2022/01/20 05:58:19;;;;;;;19.48;3.35;;;3.80;99.90;;;;;;4961665;28;20082;-79
2022/01/20 06:00:46;;;;;;;17.80;3.15;;;3.80;99.90;;;;;;4993690;28;20527;-77
2022/01/20 06:05:56;;;;;;;10.40;2.05;;;3.90;99.90;;;;;;4964420;28;20212;-77
2022/01/20 06:08:22;;;;;;;10.80;2.65;;;3.80;99.90;;;;;;4987033;28;20612;-78
2022/01/20 06:10:47;;;;;;;18.05;2.75;;;3.80;99.90;;;;;;4997159;28;20053;-78
2022/01/20 06:13:13;;;;;;;17.65;2.83;;;3.80;99.90;;;;;;4965260;28;20046;-78
2022/01/20 06:15:39;;;;;;;13.88;2.28;;;3.80;99.90;;;;;;4991969;28;20052;-78
2022/01/20 06:18:05;;;;;;;12.88;2.78;;;3.80;99.90;;;;;;4960679;28;20042;-81
2022/01/20 06:20:32;;;;;;;14.10;2.88;;;3.70;99.90;;;;;;4983596;28;20121;-77
2022/01/20 06:22:57;;;;;;;20.10;2.70;;;3.70;99.90;;;;;;4997361;28;20386;-78
2022/01/20 06:25:23;;;;;;;20.70;3.28;;;3.70;99.90;;;;;;4964961;28;20052;-78
2022/01/20 06:27:50;;;;;;;22.63;3.83;;;3.70;99.90;;;;;;4997157;28;20050;-79
2022/01/20 06:30:16;;;;;;;26.50;3.78;;;3.70;99.90;;;;;;4979754;28;20124;-77
2022/01/20 06:32:42;;;;;;;10.20;2.83;;;3.70;99.90;;;;;;4979044;28;20453;-79
2022/01/20 06:35:09;;;;;;;27.35;4.47;;;3.90;99.90;;;;;;4969767;28;20056;-82
2022/01/20 06:37:35;;;;;;;18.73;2.70;;;3.80;99.90;;;;;;4971475;28;20054;-78
2022/01/20 06:40:01;;;;;;;13.82;2.40;;;3.60;99.90;;;;;;4980442;28;20046;-78
2022/01/20 06:42:27;;;;;;;11.30;1.65;;;3.30;99.90;;;;;;4976810;28;20480;-79
2022/01/20 06:44:53;;;;;;;9.02;1.42;;;3.10;99.90;;;;;;4945038;28;20038;-78
2022/01/20 06:47:19;;;;;;;14.02;2.47;;;3.00;99.90;;;;;;4960503;28;20046;-80
2022/01/20 06:49:45;;;;;;;18.98;2.58;;;3.00;99.90;;;;;;4944704;28;20042;-81
2022/01/20 06:52:11;;;;;;;17.02;3.38;;;3.20;99.90;;;;;;4975214;28;20050;-78
2022/01/20 06:54:37;;;;;;;19.30;3.17;;;3.20;99.90;;;;;;4961891;28;20053;-78
2022/01/20 06:57:04;;;;;;;21.90;3.63;;;3.40;99.90;;;;;;4975429;28;20057;-77
2022/01/20 06:59:29;;;;;;;27.38;4.25;;;3.40;99.90;;;;;;4991358;28;20487;-77
2022/01/20 07:01:55;;;;;;;23.90;4.03;;;3.40;99.90;;;;;;4959890;28;20053;-77
2022/01/20 07:04:21;;;;;;;18.20;3.13;;;3.40;99.90;;;;;;4944277;28;20553;-80
2022/01/20 07:06:47;;;;;;;23.30;3.75;;;3.50;99.90;;;;;;4976808;28;20078;-78
2022/01/20 07:09:12;;;;;;;20.83;3.50;;;3.50;99.90;;;;;;4992493;28;20498;-77
2022/01/20 07:11:38;;;;;;;23.45;4.45;;;3.60;99.90;;;;;;4992651;28;20045;-79
2022/01/20 07:14:05;;;;;;;24.08;4.03;;;3.70;99.90;;;;;;4992061;28;20054;-85
2022/01/20 07:16:31;;;;;;;21.90;3.70;;;3.80;99.90;;;;;;4945556;28;20415;-80
2022/01/20 07:18:57;;;;;;;20.60;3.85;;;3.70;99.90;;;;;;4967476;28;20054;-79
2022/01/20 07:21:23;;;;;;;16.75;2.88;;;3.70;99.90;;;;;;4939817;28;20125;-79
2022/01/20 07:23:50;;;;;;;20.73;2.85;;;3.70;99.90;;;;;;4956367;28;20129;-79
2022/01/20 07:26:16;;;;;;;21.80;3.72;;;3.70;99.90;;;;;;4940457;28;20047;-79
2022/01/20 07:28:42;;;;;;;12.98;2.58;;;3.70;99.90;;;;;;4939945;28;20081;-81
2022/01/20 07:31:09;;;;;;;19.65;3.42;;;3.70;99.90;;;;;;4953975;28;20102;-85
2022/01/20 07:33:35;;;;;;;25.17;4.47;;;3.60;99.90;;;;;;4938897;28;20039;-83
2022/01/20 07:36:01;;;;;;;16.83;2.85;;;3.70;99.90;;;;;;4956566;28;20558;-78
2022/01/20 07:38:26;;;;;;;27.27;3.50;;;3.80;99.90;;;;;;4957132;28;20035;-78
2022/01/20 07:40:53;;;;;;;22.85;3.65;;;3.80;99.90;;;;;;4957235;28;20480;-78
2022/01/20 07:43:19;;;;;;;16.92;3.97;;;3.90;99.90;;;;;;4940385;28;20129;-80
2022/01/20 07:45:45;;;;;;;27.80;4.53;;;3.80;99.90;;;;;;4957017;28;20047;-81
2022/01/20 07:48:11;;;;;;;19.10;3.30;;;3.80;99.90;;;;;;4940788;28;20043;-77
2022/01/20 07:50:37;;;;;;;12.20;2.40;;;3.80;99.90;;;;;;4956105;28;20047;-78
2022/01/20 07:53:03;;;;;;;16.15;3.20;;;3.80;99.90;;;;;;4940597;28;20094;-81
2022/01/20 07:55:30;;;;;;;13.60;2.67;;;3.80;99.90;;;;;;4956164;28;20075;-81
2022/01/20 07:57:56;;;;;;;20.80;3.08;;;3.70;99.90;;;;;;4940265;28;20420;-81
2022/01/20 08:00:22;;;;;;;14.05;3.55;;;3.70;99.90;;;;;;4940496;28;20039;-79
2022/01/20 08:02:48;;;;;;;12.50;2.28;;;3.70;99.90;;;;;;4921669;29;20107;-77
2022/01/20 08:05:14;;;;;;;17.92;3.58;;;3.60;99.90;;;;;;4921593;29;20051;-79
2022/01/20 08:07:40;;;;;;;17.95;3.58;;;3.60;99.90;;;;;;4937632;29;20054;-80
2022/01/20 08:10:07;;;;;;;18.30;3.63;;;3.60;99.90;;;;;;4937530;29;20130;-79
2022/01/20 08:12:32;;;;;;;21.35;3.33;;;3.60;99.90;;;;;;4954486;28;20121;-83
2022/01/20 08:14:59;;;;;;;23.27;3.72;;;3.70;99.90;;;;;;4957763;28;20129;-79
2022/01/20 08:17:26;;;;;;;27.33;4.75;;;3.80;99.90;;;;;;4959776;28;20058;-81
2022/01/20 08:19:52;;;;;;;25.88;4.15;;;3.90;99.90;;;;;;4975689;28;20491;-80
2022/01/20 08:22:17;;;;;;;18.45;3.25;;;4.00;99.90;;;;;;4959084;28;20050;-82
2022/01/20 08:24:43;;;;;;;15.90;3.15;;;4.00;99.90;;;;;;4977542;28;20073;-81
2022/01/20 08:27:09;;;;;;;16.55;3.10;;;4.00;99.90;;;;;;4963137;28;20054;-82
2022/01/20 08:29:36;;;;;;;24.08;3.97;;;4.00;99.90;;;;;;4947141;28;20125;-82
2022/01/20 08:32:03;;;;;;;30.48;3.45;;;4.00;99.90;;;;;;4970591;28;20124;-81
2022/01/20 08:34:29;;;;;;;20.65;3.95;;;4.00;99.90;;;;;;4959275;28;20538;-80
2022/01/20 08:36:55;;;;;;;24.60;3.67;;;4.00;99.90;;;;;;4959810;28;20042;-82
2022/01/20 08:42:02;;;;;;;25.77;2.38;;;4.20;99.90;;;;;;4974489;28;20105;-79
2022/01/20 08:44:28;;;;;;;20.48;2.92;;;4.20;99.90;;;;;;4968066;28;20048;-84
2022/01/20 08:46:57;;;;;;;23.85;3.70;;;4.20;99.90;;;;;;4974616;28;20129;-83
2022/01/20 08:49:23;;;;;;;22.35;3.35;;;4.20;99.90;;;;;;4930470;28;20079;-84
2022/01/20 08:51:48;;;;;;;25.23;4.05;;;4.30;99.90;;;;;;4930662;28;20582;-80
2022/01/20 08:54:14;;;;;;;13.93;2.20;;;4.30;99.90;;;;;;4960058;28;20132;-81
2022/01/20 08:56:41;;;;;;;19.33;3.45;;;4.30;99.90;;;;;;4943125;28;20053;-81
2022/01/20 08:59:10;;;;;;;18.08;3.53;;;4.30;99.90;;;;;;4977194;28;20487;-81
2022/01/20 09:01:38;;;;;;;18.23;2.90;;;4.30;99.90;;;;;;4962308;28;20491;-82
2022/01/20 09:04:04;;;;;;;15.18;2.88;;;4.30;99.90;;;;;;4963658;28;20129;-83
2022/01/20 09:06:30;;;;;;;13.93;2.90;;;4.40;99.90;;;;;;4958900;28;20090;-82
2022/01/20 09:08:55;;;;;;;14.60;3.13;;;4.30;99.90;;;;;;4973196;28;20494;-80
2022/01/20 09:11:30;;;;;;;17.40;2.80;;;4.30;99.90;;;;;;4962112;28;20049;-80
2022/01/20 09:16:42;;;;;;;10.63;2.25;;;4.40;99.90;;;;;;4973607;28;20050;-83
2022/01/20 09:19:09;;;;;;;17.35;2.90;;;4.30;99.90;;;;;;4968616;28;20051;-81
2022/01/20 09:21:35;;;;;;;15.93;3.55;;;4.30;99.90;;;;;;4962191;28;20131;-84
2022/01/20 09:24:00;;;;;;;13.25;2.13;;;4.30;99.90;;;;;;4963201;28;20133;-81
2022/01/20 09:26:27;;;;;;;12.05;2.50;;;4.30;99.90;;;;;;4962038;28;20137;-84
2022/01/20 09:28:52;;;;;;;16.80;2.50;;;4.40;99.90;;;;;;4961830;28;20068;-80
2022/01/20 09:31:24;;;;;;;23.00;3.65;;;4.50;99.90;;;;;;4977795;28;20042;-82
2022/01/20 09:33:51;;;;;;;14.73;2.72;;;4.50;99.90;;;;;;4978013;28;20092;-79
2022/01/20 09:36:17;;;;;;;18.58;2.72;;;4.50;99.90;;;;;;4974134;28;20526;-79
2022/01/20 09:38:43;;;;;;;16.80;2.88;;;4.50;99.90;;;;;;4951098;28;20422;-80
2022/01/20 09:41:09;;;;;;;20.73;3.15;;;4.50;99.90;;;;;;4977807;28;20118;-80
2022/01/20 09:43:35;;;;;;;23.02;3.60;;;4.50;99.90;;;;;;4960339;28;20514;-80
2022/01/20 09:46:01;;;;;;;16.63;2.72;;;4.60;99.90;;;;;;4971426;28;20060;-79
2022/01/20 09:48:29;;;;;;;16.00;2.67;;;4.80;99.90;;;;;;4977204;28;20056;-81
2022/01/20 09:50:56;;;;;;;20.85;3.53;;;4.90;99.90;;;;;;4957718;28;20379;-80
2022/01/20 09:53:23;;;;;;;17.98;3.40;;;5.00;99.90;;;;;;4975039;28;20397;-79
2022/01/20 09:55:49;;;;;;;20.80;2.95;;;5.00;99.90;;;;;;4977471;28;20081;-81
2022/01/20 09:58:15;;;;;;;14.93;3.22;;;4.90;99.90;;;;;;4976830;28;20076;-79
2022/01/20 10:00:43;;;;;;;27.00;4.35;;;4.80;99.90;;;;;;4944240;28;20498;-81
2022/01/20 10:03:13;;;;;;;27.85;4.93;;;4.80;99.90;;;;;;4960945;28;20129;-77
2022/01/20 10:05:40;;;;;;;21.00;3.80;;;4.70;99.90;;;;;;4979281;28;20050;-80
2022/01/20 10:08:09;;;;;;;28.30;3.28;;;4.70;99.90;;;;;;4990134;28;20499;-83
2022/01/20 10:10:45;;;;;;;21.13;3.58;;;4.80;99.90;;;;;;4992917;28;20046;-80
2022/01/20 10:13:11;;;;;;;18.48;3.65;;;4.70;99.90;;;;;;4979376;28;20049;-81
2022/01/20 10:15:38;;;;;;;23.35;4.38;;;4.70;99.90;;;;;;4992939;28;20061;-85
2022/01/20 10:18:13;;;;;;;22.38;3.92;;;4.70;99.90;;;;;;4994165;28;20414;-83
2022/01/20 10:20:56;;;;;;;27.63;4.40;;;4.70;99.90;;;;;;4979544;28;20113;-82
2022/01/20 10:23:28;;;;;;;21.40;3.80;;;4.70;99.90;;;;;;4993009;28;20042;-77
2022/01/20 10:26:11;;;;;;;20.13;2.58;;;4.60;99.90;;;;;;4971606;28;20084;-79
2022/01/20 10:29:09;;;;;;;21.08;2.60;;;4.40;99.90;;;;;;4965159;28;20206;-79
2022/01/20 10:31:51;;;;;;;20.42;3.50;;;4.30;99.90;;;;;;4950692;28;20086;-81
2022/01/20 10:34:37;;;;;;;27.73;3.67;;;4.20;99.90;;;;;;4976937;28;20073;-79
2022/01/20 10:37:15;;;;;;;17.17;2.63;;;4.10;99.90;;;;;;4977087;28;20153;-80
2022/01/20 10:39:43;;;;;;;30.90;3.63;;;4.10;99.90;;;;;;4960871;28;20050;-79
2022/01/20 10:42:15;;;;;;;23.45;4.13;;;4.10;99.90;;;;;;4967280;28;20053;-79
2022/01/20 10:44:49;;;;;;;20.77;3.63;;;4.20;99.90;;;;;;4996093;28;20057;-79
2022/01/20 10:47:17;;;;;;;38.33;4.07;;;4.40;99.90;;;;;;4993395;28;20087;-80
2022/01/20 10:49:44;;;;;;;14.77;2.72;;;4.60;99.90;;;;;;4954067;28;20093;-80
2022/01/20 10:52:11;;;;;;;17.70;3.30;;;4.70;99.90;;;;;;4959925;28;20046;-78
2022/01/20 10:54:47;;;;;;;13.90;2.35;;;4.80;99.90;;;;;;4980215;28;20049;-80
2022/01/20 10:57:17;;;;;;;15.57;2.80;;;4.80;99.90;;;;;;4982342;28;20049;-78
2022/01/20 10:59:52;;;;;;;20.55;3.85;;;5.10;99.90;;;;;;4956018;28;20439;-79
2022/01/20 11:02:23;;;;;;;25.95;4.38;;;5.30;99.90;;;;;;4978356;28;20049;-78
2022/01/20 11:04:49;;;;;;;25.15;4.65;;;5.00;99.90;;;;;;4968883;28;20058;-77
2022/01/20 11:07:15;;;;;;;29.52;6.20;;;4.50;99.90;;;;;;4956935;28;20050;-77
2022/01/20 11:09:44;;;;;;;29.08;5.85;;;4.30;99.90;;;;;;4956860;28;20506;-77
2022/01/20 11:12:15;;;;;;;31.15;5.82;;;4.20;99.90;;;;;;4957257;28;20451;-77
2022/01/20 11:14:43;;;;;;;21.80;3.83;;;4.20;99.90;;;;;;4976122;28;20041;-77
2022/01/20 11:17:20;;;;;;;20.60;4.97;;;4.20;99.90;;;;;;4975707;28;20082;-78
2022/01/20 11:19:46;;;;;;;19.10;3.13;;;4.40;99.90;;;;;;4976279;28;20053;-79
2022/01/20 11:22:13;;;;;;;16.67;3.10;;;4.60;99.90;;;;;;4975852;28;20406;-81
2022/01/20 11:24:41;;;;;;;19.83;2.72;;;4.80;99.90;;;;;;4966668;28;20188;-79
2022/01/20 11:27:10;;;;;;;19.00;3.28;;;5.00;99.90;;;;;;4975976;28;20054;-81
2022/01/20 11:29:46;;;;;;;18.50;3.03;;;5.40;99.90;;;;;;4959930;28;20105;-79
2022/01/20 11:32:26;;;;;;;17.60;3.05;;;5.90;99.90;;;;;;4975536;28;20064;-84
2022/01/20 11:35:01;;;;;;;18.58;3.03;;;6.10;99.90;;;;;;4976443;28;20062;-82
2022/01/20 11:37:34;;;;;;;20.40;3.00;;;6.20;99.90;;;;;;4975655;28;20534;-81
2022/01/20 11:40:20;;;;;;;19.13;2.33;;;6.40;99.90;;;;;;4970189;28;20463;-78
2022/01/20 11:42:58;;;;;;;16.42;3.80;;;6.30;99.90;;;;;;4959708;28;20050;-79
2022/01/20 11:45:34;;;;;;;18.92;3.13;;;6.50;99.90;;;;;;4960210;28;20046;-79
2022/01/20 11:48:13;;;;;;;21.67;4.32;;;6.70;99.90;;;;;;4975902;28;20038;-81
2022/01/20 11:50:39;;;;;;;19.17;3.20;;;7.00;99.90;;;;;;4975758;28;20129;-83
2022/01/20 11:53:23;;;;;;;14.93;2.88;;;6.60;99.90;;;;;;4959659;28;20144;-81
2022/01/20 11:55:52;;;;;;;16.45;2.72;;;6.20;99.90;;;;;;4991010;28;20097;-79
2022/01/20 11:58:21;;;;;;;18.38;3.65;;;6.30;99.90;;;;;;4974716;28;20042;-79
2022/01/20 12:01:06;;;;;;;19.85;4.03;;;6.60;99.90;;;;;;4982726;28;20074;-79
2022/01/20 12:03:34;;;;;;;26.02;4.25;;;6.80;99.90;;;;;;4986292;28;20054;-80
2022/01/20 12:06:02;;;;;;;19.60;2.88;;;6.40;99.90;;;;;;4962843;28;20112;-80
2022/01/20 12:08:28;;;;;;;9.18;2.33;;;6.00;99.90;;;;;;4994753;28;20054;-78
2022/01/20 12:11:09;;;;;;;18.75;2.30;;;5.50;99.90;;;;;;4954339;28;20132;-79
2022/01/20 12:13:50;;;;;;;20.15;3.10;;;5.20;99.90;;;;;;4949009;28;20109;-81
2022/01/20 12:16:21;;;;;;;22.95;3.40;;;5.00;99.90;;;;;;4979428;28;20054;-77
2022/01/20 12:18:52;;;;;;;21.67;3.67;;;4.90;99.90;;;;;;4985076;28;20522;-80
2022/01/20 12:21:18;;;;;;;17.63;4.15;;;5.20;99.90;;;;;;4973769;28;20058;-79
2022/01/20 12:23:46;;;;;;;19.40;3.53;;;5.40;99.90;;;;;;4979974;28;20046;-78
2022/01/20 12:26:12;;;;;;;19.15;3.72;;;5.60;99.90;;;;;;4945314;28;20051;-78
2022/01/20 12:28:38;;;;;;;21.55;3.92;;;5.60;99.90;;;;;;4963079;28;20471;-80
2022/01/20 12:31:06;;;;;;;20.08;3.38;;;5.70;99.90;;;;;;4962966;28;20113;-77
2022/01/20 12:33:33;;;;;;;21.08;3.80;;;6.00;99.90;;;;;;4962942;28;20850;-81
2022/01/20 12:36:02;;;;;;;22.38;3.00;;;6.20;99.90;;;;;;4978215;28;20499;-78
2022/01/20 12:38:29;;;;;;;11.82;2.47;;;6.10;99.90;;;;;;4978988;28;20434;-79
2022/01/20 12:41:07;;;;;;;14.30;2.88;;;6.00;99.90;;;;;;4979687;28;20077;-81
2022/01/20 12:43:42;;;;;;;16.45;2.92;;;5.90;99.90;;;;;;4963044;28;20050;-78
2022/01/20 12:46:19;;;;;;;18.73;2.55;;;6.00;99.90;;;;;;4978516;28;20387;-82
2022/01/20 12:49:04;;;;;;;19.27;3.88;;;5.90;99.90;;;;;;4961885;28;20108;-84
2022/01/20 12:51:35;;;;;;;18.38;3.30;;;5.90;99.90;;;;;;4978216;28;20565;-81
2022/01/20 12:54:08;;;;;;;15.15;2.85;;;6.10;99.90;;;;;;4978053;28;20042;-80
2022/01/20 12:56:41;;;;;;;12.07;2.55;;;6.10;99.90;;;;;;4978677;28;20038;-81
2022/01/20 12:59:07;;;;;;;21.13;3.20;;;6.00;99.90;;;;;;4977856;28;20045;-79
2022/01/20 13:01:46;;;;;;;14.68;2.38;;;5.80;99.90;;;;;;4962681;28;20371;-78
2022/01/20 13:04:15;;;;;;;16.70;3.38;;;5.40;99.90;;;;;;4995058;28;20378;-82
2022/01/20 13:06:51;;;;;;;13.60;2.70;;;5.00;99.90;;;;;;4970184;28;20121;-81
2022/01/20 13:09:19;;;;;;;14.82;2.85;;;4.70;99.90;;;;;;4981363;28;20057;-81
2022/01/20 13:11:59;;;;;;;17.08;2.75;;;4.60;99.90;;;;;;4997541;28;20049;-81
2022/01/20 13:14:38;;;;;;;13.50;2.63;;;4.50;99.90;;;;;;4992315;28;20037;-83
2022/01/20 13:17:05;;;;;;;12.90;2.50;;;4.50;99.90;;;;;;4997045;28;20050;-78
2022/01/20 13:19:39;;;;;;;;;;;4.50;99.90;;;;;;4982736;28;20038;-80
2022/01/20 13:22:06;;;;;;;;;;;4.50;99.90;;;;;;4954420;28;19972;-79
2022/01/20 13:24:32;;;;;;;;;;;4.70;99.90;;;;;;4986797;28;20386;-81
2022/01/20 13:26:59;;;;;;;;;;;4.90;99.90;;;;;;4993914;28;20385;-81
2022/01/20 13:29:25;;;;;;;;;;;5.20;99.90;;;;;;4981307;28;20578;-81
2022/01/20 13:31:54;;;;;;;;;;;5.40;99.90;;;;;;5013694;28;20413;-80
2022/01/20 13:34:19;;;;;;;;;;;5.50;99.90;;;;;;4981412;28;19968;-82
2022/01/20 13:36:47;;;;;;;;;;;6.00;99.90;;;;;;4981945;28;19960;-80
2022/01/20 13:39:14;;;;;;;;;;;6.00;99.90;;;;;;4979659;28;19925;-79
2022/01/20 13:41:42;;;;;;;;;;;5.90;99.90;;;;;;5007753;28;20342;-79
2022/01/20 13:47:11;;;;;;;;;;;5.70;99.90;;;;;;4932098;29;19930;-80
2022/01/20 13:49:47;;;;;;;;;;;5.60;99.90;;;;;;4935216;29;20367;-80
2022/01/20 13:52:18;;;;;;;;;;;5.70;99.90;;;;;;4956182;28;20012;-83
2022/01/20 13:54:45;;;;;;;;;;;5.90;99.90;;;;;;4942762;28;19969;-81
2022/01/20 13:57:11;;;;;;;;;;;5.80;99.90;;;;;;4942845;28;19929;-82
2022/01/20 13:59:50;;;;;;;;;;;5.70;99.90;;;;;;4988201;28;19929;-80
2022/01/20 14:02:15;;;;;;;;;;;5.40;99.90;;;;;;4961666;28;19926;-80
2022/01/20 14:04:41;;;;;;;;;;;5.30;99.90;;;;;;4991894;28;20408;-80
2022/01/20 14:07:06;;;;;;;;;;;5.30;99.90;;;;;;5004407;28;19922;-82
2022/01/20 14:09:32;;;;;;;;;;;5.40;99.90;;;;;;4993840;28;20295;-83